Time;durP1;ratioP1;P1;durP2;ratioP2;P2;SDS_P1;SDS_P2;PMS_P1;PMS_P2;Temp;Humidity;BMP_temperature;BMP_pressure;BME280_temperature;BME280_humidity;BME280_pressure;Samples;Min_cycle;Max_cycle;Signal;HPM_P1;HPM_P2
2023/01/25 00:02:17;;;;;;;25.10;12.02;;;0.50;99.90;;;;;;4996038;28;20042;-75
2023/01/25 00:04:43;;;;;;;;;;;0.50;99.90;;;;;;4997828;28;20018;-76
2023/01/25 00:07:08;;;;;;;20.17;11.23;;;0.40;99.90;;;;;;4994510;28;19944;-76
2023/01/25 00:09:34;;;;;;;;;;;0.40;99.90;;;;;;4994898;28;20043;-76
2023/01/25 00:12:00;;;;;;;25.70;11.20;;;0.40;99.90;;;;;;4997057;28;19913;-76
2023/01/25 00:14:25;;;;;;;;;;;0.30;99.90;;;;;;4994370;28;20068;-76
2023/01/25 00:16:51;;;;;;;29.95;14.70;;;0.30;99.90;;;;;;4992465;28;19913;-76
2023/01/25 00:19:17;;;;;;;;;;;0.30;99.90;;;;;;4993936;28;20069;-75
2023/01/25 00:21:43;;;;;;;36.72;17.98;;;0.30;99.90;;;;;;4992251;28;19906;-75
2023/01/25 00:24:10;;;;;;;;;;;0.30;99.90;;;;;;4993204;28;20033;-76
2023/01/25 00:26:37;;;;;;;28.27;15.15;;;0.20;99.90;;;;;;4993451;28;19948;-76
2023/01/25 00:29:04;;;;;;;31.38;16.13;;;0.20;99.90;;;;;;4993953;28;20117;-76
2023/01/25 00:31:32;;;;;;;34.05;18.02;;;0.20;99.90;;;;;;4990906;28;20026;-76
2023/01/25 00:34:20;;;;;;;45.72;21.30;;;0.20;99.90;;;;;;4990183;28;20034;-75
2023/01/25 00:36:48;;;;;;;58.70;23.83;;;0.20;99.90;;;;;;4991477;28;20077;-76
2023/01/25 00:39:14;;;;;;;67.90;27.77;;;0.20;99.90;;;;;;4992024;28;20108;-75
2023/01/25 00:41:39;;;;;;;;;;;0.20;99.90;;;;;;4992072;28;20518;-76
2023/01/25 00:44:05;;;;;;;74.70;29.88;;;0.20;99.90;;;;;;4989080;28;20386;-77
2023/01/25 00:46:31;;;;;;;;;;;0.20;99.90;;;;;;4974594;28;20062;-76
2023/01/25 00:48:56;;;;;;;79.68;30.92;;;0.20;99.90;;;;;;4973763;28;19926;-74
2023/01/25 00:51:22;;;;;;;;;;;0.20;99.90;;;;;;4972007;28;20027;-73
2023/01/25 00:53:49;;;;;;;81.38;31.42;;;0.10;99.90;;;;;;4972953;28;19916;-74
2023/01/25 00:56:14;;;;;;;70.95;31.08;;;0.10;99.90;;;;;;4972038;28;20582;-74
2023/01/25 00:58:40;;;;;;;;;;;0.10;99.90;;;;;;4973287;28;20019;-75
2023/01/25 01:01:06;;;;;;;82.80;34.95;;;0.10;99.90;;;;;;4985056;28;19901;-78
2023/01/25 01:03:31;;;;;;;;;;;0.00;99.90;;;;;;4996288;28;20030;-78
2023/01/25 01:06:05;;;;;;;79.10;31.60;;;0.00;99.90;;;;;;4995593;28;19910;-77
2023/01/25 01:08:38;;;;;;;73.00;30.45;;;-0.10;99.90;;;;;;4992152;28;20039;-77
2023/01/25 01:11:06;;;;;;;74.68;32.33;;;-0.10;99.90;;;;;;4995532;28;20022;-78
2023/01/25 01:13:32;;;;;;;74.53;29.88;;;-0.10;99.90;;;;;;4994806;28;20026;-78
2023/01/25 01:16:04;;;;;;;63.60;27.13;;;-0.10;99.90;;;;;;4999471;28;20034;-77
2023/01/25 01:18:38;;;;;;;67.75;28.75;;;-0.20;99.90;;;;;;5002601;28;20010;-78
2023/01/25 01:21:05;;;;;;;66.63;28.80;;;-0.20;99.90;;;;;;5003834;28;20081;-78
2023/01/25 01:23:31;;;;;;;62.88;27.65;;;-0.20;99.90;;;;;;5003295;28;20075;-79
2023/01/25 01:26:02;;;;;;;62.42;25.23;;;-0.20;99.90;;;;;;5001876;28;20030;-78
2023/01/25 01:28:38;;;;;;;54.75;24.13;;;-0.20;99.90;;;;;;5000259;28;20029;-78
2023/01/25 01:31:14;;;;;;;53.90;23.70;;;-0.10;99.90;;;;;;5001203;28;20025;-79
2023/01/25 01:33:41;;;;;;;62.72;27.85;;;-0.20;99.90;;;;;;5001352;28;20023;-80
2023/01/25 01:36:16;;;;;;;65.25;29.63;;;-0.10;99.90;;;;;;5003634;28;20011;-79
2023/01/25 01:38:42;;;;;;;54.55;27.20;;;-0.20;99.90;;;;;;5003371;28;20019;-81
2023/01/25 01:41:08;;;;;;;64.30;29.77;;;-0.30;99.90;;;;;;4995318;28;20030;-77
2023/01/25 01:43:34;;;;;;;51.30;24.73;;;-0.20;99.90;;;;;;4996536;28;20035;-78
2023/01/25 01:46:08;;;;;;;49.20;23.02;;;-0.40;99.90;;;;;;4998701;28;20027;-79
2023/01/25 01:48:55;;;;;;;43.85;21.27;;;-0.30;99.90;;;;;;4999520;28;20037;-79
2023/01/25 01:51:39;;;;;;;38.55;19.23;;;-0.40;99.90;;;;;;4994242;28;20077;-77
2023/01/25 01:54:24;;;;;;;34.58;18.33;;;-0.40;99.90;;;;;;4997124;28;20022;-78
2023/01/25 01:57:13;;;;;;;32.25;16.83;;;-0.50;99.90;;;;;;5001828;28;20034;-79
2023/01/25 02:00:09;;;;;;;31.85;16.23;;;-0.30;99.90;;;;;;5001986;28;20054;-79
2023/01/25 02:02:35;;;;;;;34.28;18.40;;;-0.40;99.90;;;;;;4996534;28;20023;-79
2023/01/25 02:05:03;;;;;;;;;;;-0.40;99.90;;;;;;4999822;28;20096;-79
2023/01/25 02:07:35;;;;;;;32.35;15.40;;;-0.30;99.90;;;;;;5016734;28;19895;-80
2023/01/25 02:10:08;;;;;;;24.75;12.60;;;-0.30;99.90;;;;;;4996211;28;20126;-79
2023/01/25 02:12:35;;;;;;;27.23;13.82;;;-0.30;99.90;;;;;;4997716;28;20027;-79
2023/01/25 02:15:01;;;;;;;24.58;12.93;;;0.10;99.90;;;;;;5002760;28;20022;-79
2023/01/25 02:17:31;;;;;;;;;;;-0.20;99.90;;;;;;5002914;28;20015;-79
2023/01/25 02:20:06;;;;;;;22.92;11.68;;;-0.40;99.90;;;;;;5002601;28;19894;-79
2023/01/25 02:22:44;;;;;;;23.85;11.35;;;-0.20;99.90;;;;;;5001524;28;20026;-80
2023/01/25 02:25:12;;;;;;;27.08;13.82;;;-0.20;99.90;;;;;;5000209;28;20037;-78
2023/01/25 02:27:44;;;;;;;27.73;14.43;;;-0.20;99.90;;;;;;5000977;28;20023;-79
2023/01/25 02:30:10;;;;;;;28.00;14.73;;;-0.20;99.90;;;;;;5000349;28;20018;-79
2023/01/25 02:32:37;;;;;;;32.55;14.90;;;-0.40;99.90;;;;;;5001076;28;20038;-79
2023/01/25 02:35:03;;;;;;;27.75;13.60;;;-0.40;99.90;;;;;;5000901;28;20079;-79
2023/01/25 02:37:29;;;;;;;29.35;14.68;;;-0.40;99.90;;;;;;5001731;28;20019;-79
2023/01/25 02:39:55;;;;;;;;;;;-0.30;99.90;;;;;;5001683;28;20091;-80
2023/01/25 02:42:21;;;;;;;29.65;14.00;;;-0.30;99.90;;;;;;5001311;28;19934;-79
2023/01/25 02:44:47;;;;;;;;;;;-0.30;99.90;;;;;;5001643;28;20030;-79
2023/01/25 02:47:13;;;;;;;28.13;13.97;;;-0.20;99.90;;;;;;5000929;28;19901;-80
2023/01/25 02:49:39;;;;;;;;;;;-0.20;99.90;;;;;;5001804;28;20290;-79
2023/01/25 02:52:05;;;;;;;30.38;14.95;;;0.00;99.90;;;;;;4999999;28;19904;-79
2023/01/25 02:54:31;;;;;;;;;;;-0.10;99.90;;;;;;5001213;28;20022;-79
2023/01/25 02:56:57;;;;;;;25.25;13.70;;;-0.10;99.90;;;;;;5000014;28;19984;-80
2023/01/25 02:59:22;;;;;;;;;;;-0.10;99.90;;;;;;5001554;28;20038;-79
2023/01/25 03:01:49;;;;;;;37.08;16.30;;;-0.30;99.90;;;;;;5000920;28;19925;-80
2023/01/25 03:04:15;;;;;;;33.90;16.45;;;-0.50;99.90;;;;;;5000873;28;20011;-80
2023/01/25 03:06:41;;;;;;;31.83;14.73;;;-0.20;99.90;;;;;;5001388;28;20034;-80
2023/01/25 03:09:08;;;;;;;;;;;-0.30;99.90;;;;;;5001665;28;20019;-80
2023/01/25 03:11:35;;;;;;;34.30;16.20;;;-0.40;99.90;;;;;;5000387;28;19914;-80
2023/01/25 03:14:01;;;;;;;33.05;15.25;;;-0.50;99.90;;;;;;5000836;28;20050;-81
2023/01/25 03:16:27;;;;;;;;;;;-0.40;99.90;;;;;;5001103;28;20039;-79
2023/01/25 03:18:53;;;;;;;31.45;15.80;;;-0.50;99.90;;;;;;4998217;28;19910;-77
2023/01/25 03:21:21;;;;;;;34.65;15.98;;;-0.50;99.90;;;;;;5001231;28;20030;-80
2023/01/25 03:23:52;;;;;;;31.02;15.07;;;-0.40;99.90;;;;;;5000747;28;20003;-79
2023/01/25 03:26:20;;;;;;;33.22;18.27;;;-0.40;99.90;;;;;;5000252;28;20050;-79
2023/01/25 03:28:46;;;;;;;31.30;16.55;;;-0.40;99.90;;;;;;5000294;28;20096;-79
2023/01/25 03:31:15;;;;;;;28.48;14.48;;;-0.50;99.90;;;;;;5000745;28;20014;-79
2023/01/25 03:33:41;;;;;;;26.13;13.88;;;-0.50;99.90;;;;;;5001222;28;20015;-80
2023/01/25 03:36:08;;;;;;;28.25;14.55;;;-0.50;99.90;;;;;;5000447;28;20015;-79
2023/01/25 03:38:34;;;;;;;35.95;16.98;;;-0.50;99.90;;;;;;5001073;28;20047;-79
2023/01/25 03:41:00;;;;;;;28.10;14.85;;;-0.60;99.90;;;;;;5000838;28;20007;-79
2023/01/25 03:43:26;;;;;;;33.03;16.05;;;-0.60;99.90;;;;;;5000490;28;20019;-78
2023/01/25 03:50:55;;;;;;;41.85;18.63;;;-0.60;99.90;;;;;;5591752;23;20042;-81
2023/01/25 03:53:28;;;;;;;32.20;17.38;;;-0.50;99.90;;;;;;5016746;28;20109;-80
2023/01/25 03:56:10;;;;;;;35.28;17.50;;;-0.50;99.90;;;;;;5015807;28;20015;-80
2023/01/25 03:58:37;;;;;;;31.63;16.35;;;-0.70;99.90;;;;;;5015348;28;20117;-81
2023/01/25 04:01:05;;;;;;;39.22;20.63;;;-0.80;99.90;;;;;;5015569;28;20054;-81
2023/01/25 04:03:31;;;;;;;48.05;23.80;;;-0.70;99.90;;;;;;5016669;28;20014;-81
2023/01/25 04:05:58;;;;;;;41.05;19.85;;;-0.70;99.90;;;;;;5014900;28;20062;-80
2023/01/25 04:08:24;;;;;;;30.85;16.75;;;-0.70;99.90;;;;;;5017911;28;20025;-81
2023/01/25 04:10:56;;;;;;;32.45;17.88;;;-0.70;99.90;;;;;;5019553;28;20042;-80
2023/01/25 04:13:23;;;;;;;33.75;15.65;;;-0.70;99.90;;;;;;5019771;28;20015;-81
2023/01/25 04:15:49;;;;;;;33.67;16.02;;;-0.60;99.90;;;;;;5019359;28;20019;-81
2023/01/25 04:18:16;;;;;;;35.28;18.35;;;-0.70;99.90;;;;;;5020001;28;20082;-81
2023/01/25 04:20:42;;;;;;;39.90;17.67;;;-0.80;99.90;;;;;;5019665;28;20014;-82
2023/01/25 04:23:08;;;;;;;36.72;17.85;;;-0.70;99.90;;;;;;5019797;28;20018;-82
2023/01/25 04:25:35;;;;;;;48.60;21.95;;;-0.70;99.90;;;;;;5018298;28;20030;-81
2023/01/25 04:28:00;;;;;;;33.63;17.60;;;-0.70;99.90;;;;;;5018202;28;20046;-81
2023/01/25 04:30:26;;;;;;;;;;;-0.70;99.90;;;;;;5019070;28;20078;-81
2023/01/25 04:32:52;;;;;;;30.88;15.93;;;-0.80;99.90;;;;;;5018181;28;19894;-80
2023/01/25 04:35:21;;;;;;;;;;;-0.40;99.90;;;;;;5018936;28;20037;-80
2023/01/25 04:37:54;;;;;;;34.85;16.70;;;-0.70;99.90;;;;;;5018926;28;19898;-81
2023/01/25 04:40:20;;;;;;;37.08;19.13;;;-0.80;99.90;;;;;;5018471;28;20130;-82
2023/01/25 04:42:45;;;;;;;;;;;-0.90;99.90;;;;;;5018911;28;20285;-82
2023/01/25 05:22:38;;;;;;;39.28;18.08;;;-1.00;99.90;;;;;;5122860;23;20115;-81
2023/01/25 05:25:05;;;;;;;;;;;-1.00;99.90;;;;;;4978787;28;20011;-80
2023/01/25 05:27:30;;;;;;;;;;;-1.10;99.90;;;;;;4978549;28;19923;-80
2023/01/25 05:29:56;;;;;;;31.70;15.82;;;-1.10;99.90;;;;;;4976388;29;19898;-80
2023/01/25 05:32:23;;;;;;;29.85;14.57;;;-1.00;99.90;;;;;;4976496;28;20039;-80
2023/01/25 05:34:49;;;;;;;38.90;18.58;;;-1.10;99.90;;;;;;4977359;28;20035;-81
2023/01/25 05:37:17;;;;;;;33.08;17.92;;;-1.10;99.90;;;;;;4975740;29;20023;-79
2023/01/25 05:39:43;;;;;;;47.00;21.58;;;-1.10;99.90;;;;;;4976778;28;20023;-83
2023/01/25 05:42:13;;;;;;;;;;;-0.70;99.90;;;;;;4979898;28;20015;-82
2023/01/25 05:44:40;;;;;;;55.55;23.63;;;-1.20;99.90;;;;;;4978385;28;19906;-80
2023/01/25 05:47:06;;;;;;;55.50;25.15;;;-1.30;99.90;;;;;;4976111;28;20092;-80
2023/01/25 05:49:32;;;;;;;52.15;24.42;;;-1.20;99.90;;;;;;4976825;28;20086;-81
2023/01/25 05:51:58;;;;;;;;;;;-1.20;99.90;;;;;;4976967;28;19999;-81
2023/01/25 05:54:23;;;;;;;54.03;24.35;;;-1.20;99.90;;;;;;4974466;29;19910;-78
2023/01/25 05:56:49;;;;;;;;;;;-1.30;99.90;;;;;;4975399;29;20058;-79
2023/01/25 05:59:16;;;;;;;39.17;19.02;;;-1.30;99.90;;;;;;4975944;28;19898;-80
2023/01/25 06:01:42;;;;;;;38.20;17.90;;;-1.40;99.90;;;;;;4976068;28;20020;-80
2023/01/25 06:04:13;;;;;;;34.80;16.48;;;-0.80;99.90;;;;;;4975940;28;20031;-79
2023/01/25 06:06:38;;;;;;;30.45;15.57;;;-0.80;99.90;;;;;;4979566;29;20071;-80
2023/01/25 06:09:04;;;;;;;;;;;-1.40;99.90;;;;;;4979134;29;20051;-80
2023/01/25 06:11:30;;;;;;;45.75;19.50;;;-1.30;99.90;;;;;;4978693;29;19906;-78
2023/01/25 06:13:56;;;;;;;;;;;-1.30;99.90;;;;;;4980038;28;20035;-80
2023/01/25 06:16:22;;;;;;;37.03;17.63;;;-1.40;99.90;;;;;;4979113;28;19906;-80
2023/01/25 06:18:47;;;;;;;;;;;-1.40;99.90;;;;;;4980533;28;20007;-81
2023/01/25 06:21:13;;;;;;;30.83;16.88;;;-1.20;99.90;;;;;;4980144;29;19942;-81
2023/01/25 06:23:39;;;;;;;;;;;-1.20;99.90;;;;;;4980898;28;20035;-81
2023/01/25 06:26:07;;;;;;;36.08;15.70;;;-1.30;99.90;;;;;;4980689;28;19902;-80
2023/01/25 06:28:35;;;;;;;27.77;13.80;;;-1.10;99.90;;;;;;4981635;28;20019;-81
2023/01/25 06:31:07;;;;;;;27.35;13.93;;;-1.00;99.90;;;;;;4978903;28;20046;-79
2023/01/25 06:33:33;;;;;;;30.60;16.40;;;-1.30;99.90;;;;;;4974005;28;20031;-79
2023/01/25 06:36:05;;;;;;;36.75;21.98;;;-1.20;99.90;;;;;;4976277;29;20031;-80
2023/01/25 06:38:31;;;;;;;32.97;19.60;;;-1.20;99.90;;;;;;4979941;28;20027;-79
2023/01/25 06:41:01;;;;;;;37.85;20.65;;;-0.80;99.90;;;;;;4982318;28;20024;-80
2023/01/25 06:43:27;;;;;;;33.00;17.25;;;-0.60;99.90;;;;;;4981805;28;20512;-81
2023/01/25 07:03:58;;;;;;;48.47;24.13;;;-0.60;99.90;;;;;;5591381;23;20072;-80
2023/01/25 07:06:24;;;;;;;217.48;80.78;;;0.00;99.90;;;;;;4995373;28;20030;-78
2023/01/25 07:08:51;;;;;;;69.30;34.30;;;0.30;99.90;;;;;;4995051;28;20098;-80
2023/01/25 07:11:17;;;;;;;68.97;35.03;;;0.90;99.90;;;;;;4997148;28;20019;-80
2023/01/25 07:13:45;;;;;;;60.50;33.35;;;1.40;99.90;;;;;;4996616;28;20015;-80
2023/01/25 07:16:14;;;;;;;47.90;25.98;;;1.60;99.90;;;;;;4994995;28;20082;-80
2023/01/25 07:18:41;;;;;;;47.53;25.92;;;1.90;99.90;;;;;;4997903;28;20015;-81
2023/01/25 07:21:15;;;;;;;40.53;23.48;;;2.10;99.90;;;;;;4998997;28;20019;-81
2023/01/25 07:23:41;;;;;;;40.45;23.00;;;2.50;99.90;;;;;;4999154;28;20089;-82
2023/01/25 07:26:23;;;;;;;39.70;21.90;;;2.60;99.90;;;;;;4998594;28;20023;-80
2023/01/25 07:28:49;;;;;;;33.47;19.33;;;2.80;99.90;;;;;;4996188;28;20122;-80
2023/01/25 07:31:16;;;;;;;40.67;21.50;;;3.00;99.90;;;;;;4999173;28;20003;-83
2023/01/25 07:33:48;;;;;;;46.00;23.33;;;3.30;99.90;;;;;;4998153;28;20071;-79
2023/01/25 07:36:14;;;;;;;85.40;42.83;;;3.60;99.90;;;;;;4998864;28;20018;-82
2023/01/25 07:38:40;;;;;;;152.68;67.45;;;3.80;99.90;;;;;;4998090;28;20007;-81
2023/01/25 07:41:06;;;;;;;;;;;4.00;99.90;;;;;;4998545;28;20095;-80
2023/01/25 07:43:32;;;;;;;156.38;73.60;;;4.10;99.90;;;;;;5013667;28;19910;-79
2023/01/25 07:46:10;;;;;;;84.90;38.40;;;4.30;99.90;;;;;;4996356;28;20037;-80
2023/01/25 07:48:36;;;;;;;50.22;26.55;;;4.20;99.90;;;;;;4996922;28;20043;-80
2023/01/25 07:51:40;;;;;;;60.88;27.55;;;4.40;99.90;;;;;;4997193;28;20019;-80
2023/01/25 07:54:02;;;;;;;22.70;12.55;;;4.40;99.90;;;;;;4997309;28;20049;-81
2023/01/25 07:56:33;;;;;;;24.77;14.77;;;4.30;99.90;;;;;;4997105;28;20015;-80
2023/01/25 07:59:03;;;;;;;28.35;15.45;;;4.30;99.90;;;;;;4995390;28;20023;-79
2023/01/25 08:01:33;;;;;;;29.10;14.75;;;4.30;99.90;;;;;;4995264;28;20067;-82
2023/01/25 08:04:00;;;;;;;25.13;14.10;;;4.50;99.90;;;;;;4994691;28;20129;-80
2023/01/25 08:06:34;;;;;;;24.98;14.95;;;4.60;99.90;;;;;;4997925;28;20038;-81
2023/01/25 08:09:03;;;;;;;23.98;13.20;;;4.90;99.90;;;;;;4998045;28;20463;-80
2023/01/25 08:11:31;;;;;;;21.90;12.32;;;5.30;99.90;;;;;;4998205;28;20039;-82
2023/01/25 08:13:57;;;;;;;25.98;15.45;;;5.60;99.90;;;;;;4997041;28;20014;-79
2023/01/25 08:16:25;;;;;;;34.10;16.80;;;5.70;99.90;;;;;;4995814;28;20030;-81
2023/01/25 08:18:53;;;;;;;33.20;16.95;;;6.00;99.90;;;;;;4993040;28;20061;-80
2023/01/25 08:21:23;;;;;;;37.55;19.73;;;6.20;99.90;;;;;;4997552;28;20031;-80
2023/01/25 08:23:49;;;;;;;35.40;18.48;;;6.50;99.90;;;;;;4998762;28;20047;-81
2023/01/25 08:26:16;;;;;;;;;;;6.60;99.90;;;;;;4997750;28;20019;-80
2023/01/25 08:28:42;;;;;;;30.52;14.40;;;6.80;99.90;;;;;;4996593;28;19917;-80
2023/01/25 08:31:09;;;;;;;;;;;6.90;99.90;;;;;;4997173;28;20119;-80
2023/01/25 08:33:35;;;;;;;;;;;7.20;99.90;;;;;;4998632;28;19914;-80
2023/01/25 08:36:01;;;;;;;25.98;15.05;;;7.40;99.90;;;;;;4996985;28;19964;-80
2023/01/25 08:38:26;;;;;;;;;;;7.70;99.90;;;;;;4998110;28;20027;-80
2023/01/25 08:40:52;;;;;;;28.15;14.63;;;8.10;99.90;;;;;;4998217;28;19917;-80
2023/01/25 08:43:18;;;;;;;;;;;8.10;99.90;;;;;;4999492;28;20038;-80
2023/01/25 08:45:44;;;;;;;19.50;13.18;;;8.40;99.90;;;;;;4998551;28;19910;-82
2023/01/25 08:48:14;;;;;;;21.17;12.63;;;8.00;99.90;;;;;;4997556;28;20110;-81
2023/01/25 08:50:46;;;;;;;25.27;13.63;;;7.80;99.90;;;;;;4998331;28;20058;-80
2023/01/25 08:53:12;;;;;;;39.42;24.38;;;7.20;99.90;;;;;;4998429;28;20022;-80
2023/01/25 08:55:37;;;;;;;;;;;6.80;99.90;;;;;;4998225;28;20019;-80
2023/01/25 08:58:03;;;;;;;59.85;31.10;;;6.40;99.90;;;;;;4997634;28;19897;-80
2023/01/25 09:00:29;;;;;;;36.03;20.70;;;6.20;99.90;;;;;;4997324;28;20027;-80
2023/01/25 09:02:55;;;;;;;;;;;5.80;99.90;;;;;;4997894;28;20030;-79
2023/01/25 09:05:20;;;;;;;39.38;23.50;;;5.60;99.90;;;;;;4997881;28;19894;-80
2023/01/25 09:07:46;;;;;;;;;;;5.50;99.90;;;;;;4998371;28;20060;-81
2023/01/25 09:10:12;;;;;;;51.17;31.95;;;5.70;99.90;;;;;;4998231;28;19929;-79
2023/01/25 09:12:38;;;;;;;;;;;6.00;99.90;;;;;;4998165;28;20026;-80
2023/01/25 09:15:04;;;;;;;49.88;31.08;;;6.30;99.90;;;;;;4996869;28;19910;-81
2023/01/25 09:17:30;;;;;;;52.40;32.50;;;6.30;99.90;;;;;;4996474;28;20094;-80
2023/01/25 09:19:55;;;;;;;;;;;6.10;99.90;;;;;;4997375;28;20054;-81
2023/01/25 09:22:21;;;;;;;38.67;21.73;;;5.90;99.90;;;;;;4996177;28;19938;-80
2023/01/25 09:24:50;;;;;;;;;;;5.70;99.90;;;;;;4996254;28;20038;-80
2023/01/25 09:27:16;;;;;;;37.03;22.75;;;5.70;99.90;;;;;;4996439;28;19985;-80
2023/01/25 09:29:42;;;;;;;;;;;5.60;99.90;;;;;;4995449;28;20031;-79
2023/01/25 09:32:09;;;;;;;48.25;27.15;;;5.60;99.90;;;;;;4995812;28;19890;-80
2023/01/25 09:34:35;;;;;;;51.05;30.40;;;5.60;99.90;;;;;;4996233;28;20026;-80
2023/01/25 09:37:01;;;;;;;45.33;30.90;;;5.70;99.90;;;;;;4995342;28;20015;-80
2023/01/25 09:39:26;;;;;;;;;;;5.50;99.90;;;;;;4996993;28;20113;-80
2023/01/25 09:42:01;;;;;;;40.67;24.70;;;5.70;99.90;;;;;;4998070;28;19928;-81
2023/01/25 09:44:36;;;;;;;36.33;20.30;;;5.70;99.90;;;;;;4999660;28;20011;-81
2023/01/25 09:47:13;;;;;;;34.10;20.17;;;5.80;99.90;;;;;;4999678;28;20027;-81
2023/01/25 09:50:00;;;;;;;37.30;22.13;;;5.70;99.90;;;;;;4998789;28;20071;-80
2023/01/25 09:53:23;;;;;;;32.65;20.10;;;5.50;99.90;;;;;;4998886;28;20023;-81
2023/01/25 09:55:53;;;;;;;34.78;19.50;;;5.50;99.90;;;;;;4972462;29;20035;-79
2023/01/25 09:58:24;;;;;;;33.58;19.95;;;5.40;99.90;;;;;;4953029;29;20063;-79
2023/01/25 10:01:01;;;;;;;34.13;19.83;;;5.30;99.90;;;;;;4979366;28;20500;-80
2023/01/25 10:03:33;;;;;;;;;;;5.20;99.90;;;;;;4993478;28;20050;-80
2023/01/25 10:06:01;;;;;;;39.47;21.13;;;5.30;99.90;;;;;;4994351;28;19910;-80
2023/01/25 10:09:00;;;;;;;36.65;22.67;;;5.30;99.90;;;;;;4996160;28;20097;-78
2023/01/25 10:11:29;;;;;;;49.45;32.70;;;5.50;99.90;;;;;;4975801;28;20046;-78
2023/01/25 10:13:57;;;;;;;34.78;22.25;;;5.60;99.90;;;;;;4989981;28;20042;-80
2023/01/25 10:16:30;;;;;;;29.55;20.33;;;5.80;99.90;;;;;;4995306;28;20022;-80
2023/01/25 10:18:59;;;;;;;34.65;21.02;;;6.00;99.90;;;;;;4991593;28;20038;-80
2023/01/25 10:21:39;;;;;;;37.17;20.35;;;6.20;99.90;;;;;;4995897;28;20058;-79
2023/01/25 10:24:23;;;;;;;36.15;19.63;;;6.40;99.90;;;;;;4992417;28;20034;-78
2023/01/25 10:26:56;;;;;;;31.40;19.70;;;6.30;99.90;;;;;;4987684;28;20057;-79
2023/01/25 10:29:33;;;;;;;33.50;20.90;;;6.30;99.90;;;;;;4992428;28;20034;-80
2023/01/25 10:32:31;;;;;;;40.22;25.08;;;6.20;99.90;;;;;;4989938;28;20022;-79
2023/01/25 10:35:11;;;;;;;33.20;19.60;;;6.10;99.90;;;;;;4992974;28;20019;-81
2023/01/25 10:37:37;;;;;;;29.52;18.42;;;6.10;99.90;;;;;;4996863;28;20011;-79
2023/01/25 10:40:14;;;;;;;;;;;6.10;99.90;;;;;;4996975;28;20018;-81
2023/01/25 10:42:51;;;;;;;30.27;18.10;;;6.10;99.90;;;;;;4996046;28;19910;-80
2023/01/25 10:45:18;;;;;;;29.27;17.30;;;6.00;99.90;;;;;;4996972;28;20050;-80
2023/01/25 10:47:51;;;;;;;28.52;17.95;;;5.80;99.90;;;;;;4997454;28;20034;-82
2023/01/25 10:50:45;;;;;;;29.75;18.10;;;5.70;99.90;;;;;;4996638;28;20027;-81
2023/01/25 10:53:33;;;;;;;29.38;17.17;;;5.60;99.90;;;;;;4998075;28;20034;-81
2023/01/25 10:56:24;;;;;;;29.50;18.90;;;5.40;99.90;;;;;;4999378;28;20023;-80
2023/01/25 10:59:04;;;;;;;29.80;18.27;;;5.30;99.90;;;;;;4999324;28;20027;-81
2023/01/25 11:01:32;;;;;;;28.27;17.33;;;5.20;99.90;;;;;;4999367;28;20049;-80
2023/01/25 11:04:00;;;;;;;29.70;18.27;;;5.10;99.90;;;;;;4997850;28;20049;-83
2023/01/25 11:06:35;;;;;;;27.77;17.98;;;4.90;99.90;;;;;;5001841;28;20083;-80
2023/01/25 11:09:28;;;;;;;27.45;16.90;;;4.80;99.90;;;;;;5001253;28;20023;-81
2023/01/25 11:12:01;;;;;;;27.48;17.83;;;4.70;99.90;;;;;;4984540;28;20102;-83
2023/01/25 11:14:30;;;;;;;23.65;15.98;;;4.50;99.90;;;;;;4998517;28;20033;-80
2023/01/25 11:16:57;;;;;;;24.30;15.30;;;4.40;99.90;;;;;;5001232;28;20096;-81
2023/01/25 11:19:30;;;;;;;31.70;20.35;;;4.60;99.90;;;;;;5000415;28;20022;-80
2023/01/25 11:21:57;;;;;;;34.70;19.42;;;4.50;99.90;;;;;;5000704;28;20117;-81
2023/01/25 11:24:28;;;;;;;29.58;18.20;;;4.50;99.90;;;;;;5000506;28;20023;-80
2023/01/25 11:27:16;;;;;;;36.38;20.23;;;4.50;99.90;;;;;;4997680;28;20031;-80
2023/01/25 11:29:42;;;;;;;29.00;17.63;;;4.60;99.90;;;;;;5000549;28;20027;-79
2023/01/25 11:32:21;;;;;;;;;;;4.60;99.90;;;;;;5000756;28;20026;-80
2023/01/25 11:34:49;;;;;;;26.75;16.25;;;4.50;99.90;;;;;;5000492;28;19929;-80
2023/01/25 11:37:26;;;;;;;26.30;16.42;;;4.40;99.90;;;;;;5000453;28;20090;-80
2023/01/25 11:40:30;;;;;;;33.15;18.70;;;4.30;99.90;;;;;;5000616;28;20041;-81
2023/01/25 11:43:11;;;;;;;30.45;18.38;;;4.20;99.90;;;;;;4993931;28;20050;-80
2023/01/25 12:24:43;;;;;;;28.65;16.23;;;4.40;99.90;;;;;;521363;26;20466;-79
2023/01/25 12:27:42;;;;;;;29.88;16.48;;;4.50;99.90;;;;;;5015479;28;20519;-81
2023/01/25 12:30:35;;;;;;;25.73;15.32;;;4.60;99.90;;;;;;5017690;28;20038;-80
2023/01/25 12:33:27;;;;;;;26.65;15.50;;;4.60;99.90;;;;;;5018844;28;20022;-81
2023/01/25 12:36:17;;;;;;;33.85;18.95;;;4.70;99.90;;;;;;5009180;28;20534;-81
2023/01/25 12:39:00;;;;;;;36.38;20.48;;;4.70;99.90;;;;;;5016706;28;20089;-80
2023/01/25 12:41:42;;;;;;;34.40;20.63;;;4.70;99.90;;;;;;5015160;28;20041;-80
2023/01/25 12:44:34;;;;;;;34.95;21.05;;;4.70;99.90;;;;;;5015495;28;20026;-80
2023/01/25 12:47:14;;;;;;;44.58;27.85;;;4.70;99.90;;;;;;5014984;28;20098;-80
2023/01/25 12:50:12;;;;;;;32.03;20.90;;;4.80;99.90;;;;;;5015269;28;20060;-80
2023/01/25 12:52:58;;;;;;;22.65;13.73;;;4.80;99.90;;;;;;5016085;28;20057;-80
2023/01/25 12:55:24;;;;;;;28.48;17.52;;;4.90;99.90;;;;;;5015841;28;20037;-80
2023/01/25 12:58:00;;;;;;;28.05;17.02;;;4.90;99.90;;;;;;5015026;28;20097;-80
2023/01/25 13:00:44;;;;;;;32.40;21.48;;;4.80;99.90;;;;;;5015429;28;20011;-79
2023/01/25 13:03:48;;;;;;;45.85;33.83;;;4.80;99.90;;;;;;5014899;28;20031;-80
2023/01/25 13:06:39;;;;;;;36.13;23.25;;;4.80;99.90;;;;;;5015018;28;20058;-80
2023/01/25 13:09:32;;;;;;;24.88;15.60;;;4.90;99.90;;;;;;5014852;28;20022;-80
2023/01/25 13:12:02;;;;;;;22.92;13.63;;;4.80;99.90;;;;;;5015856;28;20099;-80
2023/01/25 13:14:37;;;;;;;25.08;16.60;;;4.80;99.90;;;;;;5018175;28;20040;-80
2023/01/25 13:17:26;;;;;;;27.45;15.73;;;4.70;99.90;;;;;;5018592;28;20030;-80
2023/01/25 13:19:52;;;;;;;26.98;15.60;;;4.70;99.90;;;;;;5018764;28;20045;-80
2023/01/25 13:22:39;;;;;;;;;;;4.70;99.90;;;;;;5019988;28;20022;-80
2023/01/25 13:25:09;;;;;;;33.80;18.35;;;4.70;99.90;;;;;;5009120;28;19913;-80
2023/01/25 13:27:37;;;;;;;25.15;14.50;;;4.70;99.90;;;;;;5019219;28;20045;-80
2023/01/25 13:30:32;;;;;;;24.42;14.18;;;4.70;99.90;;;;;;5020351;28;20065;-80
2023/01/25 13:33:02;;;;;;;23.77;14.85;;;4.80;99.90;;;;;;5018953;28;20082;-79
2023/01/25 13:35:36;;;;;;;22.17;13.98;;;4.80;99.90;;;;;;5019527;28;20026;-80
2023/01/25 13:38:10;;;;;;;26.40;13.80;;;4.90;99.90;;;;;;5021617;28;20023;-81
2023/01/25 13:40:39;;;;;;;22.90;14.10;;;4.80;99.90;;;;;;5020571;28;20057;-80
2023/01/25 13:43:19;;;;;;;23.98;13.55;;;4.90;99.90;;;;;;5021228;28;20019;-81
2023/01/25 13:45:49;;;;;;;24.25;13.70;;;4.70;99.90;;;;;;5021065;28;20095;-81
2023/01/25 13:48:22;;;;;;;23.05;13.77;;;4.80;99.90;;;;;;5020871;28;20022;-80
2023/01/25 13:51:22;;;;;;;30.77;13.70;;;4.80;99.90;;;;;;5021616;28;20042;-80
2023/01/25 13:53:56;;;;;;;25.65;13.85;;;4.90;99.90;;;;;;5008563;28;20027;-81
2023/01/25 13:56:33;;;;;;;24.73;14.63;;;4.80;99.90;;;;;;5021832;28;20013;-80
2023/01/25 13:58:59;;;;;;;23.75;14.13;;;4.80;99.90;;;;;;5021423;28;20038;-81
2023/01/25 14:01:25;;;;;;;;;;;4.70;99.90;;;;;;5019985;28;20022;-80
2023/01/25 14:03:58;;;;;;;45.13;25.83;;;4.70;99.90;;;;;;5019346;28;19937;-80
2023/01/25 14:06:40;;;;;;;30.58;17.15;;;4.70;99.90;;;;;;5019892;28;20061;-80
2023/01/25 14:09:14;;;;;;;24.98;13.88;;;4.60;99.90;;;;;;5019808;28;20097;-80
2023/01/25 14:11:53;;;;;;;32.30;13.55;;;4.60;99.90;;;;;;5020380;28;20017;-80
2023/01/25 14:14:31;;;;;;;30.00;16.45;;;4.60;99.90;;;;;;5020763;28;20034;-79
2023/01/25 14:17:07;;;;;;;25.90;15.82;;;4.50;99.90;;;;;;5021276;28;20046;-80
2023/01/25 14:19:41;;;;;;;19.65;12.50;;;4.50;99.90;;;;;;5021190;28;20022;-81
2023/01/25 14:22:25;;;;;;;19.67;12.38;;;4.50;99.90;;;;;;5020727;28;20022;-81
2023/01/25 14:25:03;;;;;;;25.58;15.55;;;4.40;99.90;;;;;;5018837;28;20040;-80
2023/01/25 14:27:29;;;;;;;27.50;15.52;;;4.40;99.90;;;;;;5020855;28;20017;-79
2023/01/25 14:29:55;;;;;;;25.15;14.50;;;4.40;99.90;;;;;;5018342;28;20026;-80
2023/01/25 14:32:22;;;;;;;;;;;4.30;99.90;;;;;;5021008;28;20010;-80
2023/01/25 14:34:48;;;;;;;;;;;4.30;99.90;;;;;;5022087;28;19894;-79
2023/01/25 14:37:19;;;;;;;22.63;11.60;;;4.30;99.90;;;;;;5022274;28;19917;-79
2023/01/25 14:39:50;;;;;;;22.38;12.32;;;4.30;99.90;;;;;;5020921;28;20031;-80
2023/01/25 14:42:17;;;;;;;27.10;16.25;;;4.40;99.90;;;;;;5021977;28;20030;-81
2023/01/25 14:44:44;;;;;;;22.70;13.02;;;4.30;99.90;;;;;;5429826;23;20041;-82
2023/01/25 14:47:32;;;;;;;21.80;13.30;;;4.20;99.90;;;;;;5021015;28;20045;-80
2023/01/25 14:50:34;;;;;;;20.40;11.88;;;4.20;99.90;;;;;;5021670;28;20070;-80
2023/01/25 14:53:23;;;;;;;21.30;12.98;;;4.00;99.90;;;;;;5021011;28;20028;-81